sensor_id;sensor_type;location;lat;lon;timestamp;P1;durP1;ratioP1;P2;durP2;ratioP2
3747;SDS011;1889;50.058;8.688;2023-04-07T00:00:57;13.38;;;11.18;;
3747;SDS011;1889;50.058;8.688;2023-04-07T00:03:27;13.32;;;11.30;;
3747;SDS011;1889;50.058;8.688;2023-04-07T00:05:56;15.40;;;11.88;;
3747;SDS011;1889;50.058;8.688;2023-04-07T00:08:26;14.83;;;11.08;;
3747;SDS011;1889;50.058;8.688;2023-04-07T00:10:55;16.85;;;11.50;;
3747;SDS011;1889;50.058;8.688;2023-04-07T00:13:24;14.73;;;11.43;;
3747;SDS011;1889;50.058;8.688;2023-04-07T00:15:54;12.55;;;10.95;;
3747;SDS011;1889;50.058;8.688;2023-04-07T00:18:23;13.38;;;10.03;;
3747;SDS011;1889;50.058;8.688;2023-04-07T00:20:53;12.90;;;10.93;;
3747;SDS011;1889;50.058;8.688;2023-04-07T00:23:22;12.85;;;11.30;;
3747;SDS011;1889;50.058;8.688;2023-04-07T00:25:52;13.13;;;11.73;;
3747;SDS011;1889;50.058;8.688;2023-04-07T00:28:21;14.38;;;11.25;;
3747;SDS011;1889;50.058;8.688;2023-04-07T00:30:50;14.30;;;11.57;;
3747;SDS011;1889;50.058;8.688;2023-04-07T00:33:20;15.58;;;11.18;;
3747;SDS011;1889;50.058;8.688;2023-04-07T00:35:49;17.02;;;12.63;;
3747;SDS011;1889;50.058;8.688;2023-04-07T00:38:20;13.08;;;10.53;;
3747;SDS011;1889;50.058;8.688;2023-04-07T00:40:55;14.58;;;11.08;;
3747;SDS011;1889;50.058;8.688;2023-04-07T00:43:26;13.10;;;10.80;;
3747;SDS011;1889;50.058;8.688;2023-04-07T00:45:56;13.68;;;11.15;;
3747;SDS011;1889;50.058;8.688;2023-04-07T00:48:25;15.60;;;11.53;;
3747;SDS011;1889;50.058;8.688;2023-04-07T00:50:54;13.88;;;10.55;;
3747;SDS011;1889;50.058;8.688;2023-04-07T00:53:24;14.38;;;11.50;;
3747;SDS011;1889;50.058;8.688;2023-04-07T00:55:53;15.88;;;11.60;;
3747;SDS011;1889;50.058;8.688;2023-04-07T00:58:22;14.65;;;11.95;;
3747;SDS011;1889;50.058;8.688;2023-04-07T01:00:58;13.85;;;11.28;;
3747;SDS011;1889;50.058;8.688;2023-04-07T01:03:43;12.05;;;10.78;;
3747;SDS011;1889;50.058;8.688;2023-04-07T01:06:23;12.93;;;10.93;;
3747;SDS011;1889;50.058;8.688;2023-04-07T01:08:56;13.15;;;10.75;;
3747;SDS011;1889;50.058;8.688;2023-04-07T01:14:12;13.80;;;11.50;;
3747;SDS011;1889;50.058;8.688;2023-04-07T01:16:45;14.30;;;10.60;;
3747;SDS011;1889;50.058;8.688;2023-04-07T01:22:12;13.98;;;10.48;;
3747;SDS011;1889;50.058;8.688;2023-04-07T01:30:26;12.45;;;10.50;;
3747;SDS011;1889;50.058;8.688;2023-04-07T01:33:03;12.30;;;10.53;;
3747;SDS011;1889;50.058;8.688;2023-04-07T01:35:34;14.07;;;11.20;;
3747;SDS011;1889;50.058;8.688;2023-04-07T01:38:06;12.68;;;10.00;;
3747;SDS011;1889;50.058;8.688;2023-04-07T01:40:36;13.85;;;10.53;;
3747;SDS011;1889;50.058;8.688;2023-04-07T01:43:07;12.28;;;10.35;;
3747;SDS011;1889;50.058;8.688;2023-04-07T01:45:37;12.20;;;10.45;;
3747;SDS011;1889;50.058;8.688;2023-04-07T01:48:08;12.60;;;10.48;;
3747;SDS011;1889;50.058;8.688;2023-04-07T01:50:38;14.05;;;11.20;;
3747;SDS011;1889;50.058;8.688;2023-04-07T01:53:08;13.45;;;11.05;;
3747;SDS011;1889;50.058;8.688;2023-04-07T01:55:39;15.15;;;10.53;;
3747;SDS011;1889;50.058;8.688;2023-04-07T01:58:09;12.93;;;10.63;;
3747;SDS011;1889;50.058;8.688;2023-04-07T02:00:38;11.80;;;9.88;;
3747;SDS011;1889;50.058;8.688;2023-04-07T02:03:14;14.93;;;10.45;;
3747;SDS011;1889;50.058;8.688;2023-04-07T02:05:42;13.38;;;10.70;;
3747;SDS011;1889;50.058;8.688;2023-04-07T02:08:12;13.03;;;10.85;;
3747;SDS011;1889;50.058;8.688;2023-04-07T02:10:45;12.07;;;10.45;;
3747;SDS011;1889;50.058;8.688;2023-04-07T02:13:17;12.05;;;10.13;;
3747;SDS011;1889;50.058;8.688;2023-04-07T02:15:47;11.97;;;9.73;;
3747;SDS011;1889;50.058;8.688;2023-04-07T02:18:18;11.22;;;9.38;;
3747;SDS011;1889;50.058;8.688;2023-04-07T02:20:49;12.18;;;9.48;;
3747;SDS011;1889;50.058;8.688;2023-04-07T02:23:20;13.68;;;10.20;;
3747;SDS011;1889;50.058;8.688;2023-04-07T02:25:50;11.95;;;9.93;;
3747;SDS011;1889;50.058;8.688;2023-04-07T02:28:19;12.33;;;9.03;;
3747;SDS011;1889;50.058;8.688;2023-04-07T02:30:48;12.35;;;9.90;;
3747;SDS011;1889;50.058;8.688;2023-04-07T02:33:18;12.23;;;9.93;;
3747;SDS011;1889;50.058;8.688;2023-04-07T02:35:47;11.35;;;9.50;;
3747;SDS011;1889;50.058;8.688;2023-04-07T02:38:16;12.37;;;9.90;;
3747;SDS011;1889;50.058;8.688;2023-04-07T02:40:46;11.90;;;9.23;;
3747;SDS011;1889;50.058;8.688;2023-04-07T02:43:15;11.20;;;9.10;;
3747;SDS011;1889;50.058;8.688;2023-04-07T02:45:45;11.65;;;9.58;;
3747;SDS011;1889;50.058;8.688;2023-04-07T02:48:15;13.48;;;9.35;;
3747;SDS011;1889;50.058;8.688;2023-04-07T02:50:44;13.18;;;10.20;;
3747;SDS011;1889;50.058;8.688;2023-04-07T02:53:13;11.60;;;9.25;;
3747;SDS011;1889;50.058;8.688;2023-04-07T02:55:43;11.22;;;9.03;;
3747;SDS011;1889;50.058;8.688;2023-04-07T02:58:13;12.73;;;10.35;;
3747;SDS011;1889;50.058;8.688;2023-04-07T03:00:42;11.65;;;8.65;;
3747;SDS011;1889;50.058;8.688;2023-04-07T03:03:11;10.45;;;8.95;;
3747;SDS011;1889;50.058;8.688;2023-04-07T03:05:41;10.28;;;8.68;;
3747;SDS011;1889;50.058;8.688;2023-04-07T03:08:10;11.95;;;8.88;;
3747;SDS011;1889;50.058;8.688;2023-04-07T03:10:39;10.55;;;8.75;;
3747;SDS011;1889;50.058;8.688;2023-04-07T03:13:08;11.10;;;9.13;;
3747;SDS011;1889;50.058;8.688;2023-04-07T03:15:39;12.25;;;9.55;;
3747;SDS011;1889;50.058;8.688;2023-04-07T03:18:09;10.95;;;8.63;;
3747;SDS011;1889;50.058;8.688;2023-04-07T03:20:39;10.82;;;9.60;;
3747;SDS011;1889;50.058;8.688;2023-04-07T03:23:08;11.20;;;10.00;;
3747;SDS011;1889;50.058;8.688;2023-04-07T03:25:38;13.68;;;9.93;;
3747;SDS011;1889;50.058;8.688;2023-04-07T03:28:07;10.80;;;9.38;;
3747;SDS011;1889;50.058;8.688;2023-04-07T03:30:37;10.03;;;8.90;;
3747;SDS011;1889;50.058;8.688;2023-04-07T03:33:06;13.68;;;9.63;;
3747;SDS011;1889;50.058;8.688;2023-04-07T03:35:36;13.10;;;10.18;;
3747;SDS011;1889;50.058;8.688;2023-04-07T03:38:05;11.05;;;8.90;;
3747;SDS011;1889;50.058;8.688;2023-04-07T03:40:34;11.93;;;9.30;;
3747;SDS011;1889;50.058;8.688;2023-04-07T03:43:04;12.33;;;9.15;;
3747;SDS011;1889;50.058;8.688;2023-04-07T03:45:35;13.83;;;9.63;;
3747;SDS011;1889;50.058;8.688;2023-04-07T03:48:04;11.38;;;8.78;;
3747;SDS011;1889;50.058;8.688;2023-04-07T03:50:35;11.63;;;8.90;;
3747;SDS011;1889;50.058;8.688;2023-04-07T03:53:06;14.80;;;9.35;;
3747;SDS011;1889;50.058;8.688;2023-04-07T03:55:35;10.70;;;8.70;;
3747;SDS011;1889;50.058;8.688;2023-04-07T03:58:05;12.43;;;10.13;;
3747;SDS011;1889;50.058;8.688;2023-04-07T04:00:34;11.80;;;9.10;;
3747;SDS011;1889;50.058;8.688;2023-04-07T04:03:04;11.40;;;9.28;;
3747;SDS011;1889;50.058;8.688;2023-04-07T04:05:33;11.95;;;9.28;;
3747;SDS011;1889;50.058;8.688;2023-04-07T04:08:03;10.10;;;8.78;;
3747;SDS011;1889;50.058;8.688;2023-04-07T04:10:33;10.05;;;8.75;;
3747;SDS011;1889;50.058;8.688;2023-04-07T04:13:02;11.80;;;8.63;;
3747;SDS011;1889;50.058;8.688;2023-04-07T04:15:33;10.48;;;8.60;;
3747;SDS011;1889;50.058;8.688;2023-04-07T04:18:02;11.45;;;8.95;;
3747;SDS011;1889;50.058;8.688;2023-04-07T04:20:31;12.33;;;8.93;;
3747;SDS011;1889;50.058;8.688;2023-04-07T04:23:01;10.43;;;8.93;;
3747;SDS011;1889;50.058;8.688;2023-04-07T04:25:31;12.00;;;9.25;;
3747;SDS011;1889;50.058;8.688;2023-04-07T04:28:00;11.35;;;9.50;;
3747;SDS011;1889;50.058;8.688;2023-04-07T04:30:29;11.15;;;9.33;;
3747;SDS011;1889;50.058;8.688;2023-04-07T04:32:59;10.40;;;8.45;;
3747;SDS011;1889;50.058;8.688;2023-04-07T04:35:29;13.78;;;8.93;;
3747;SDS011;1889;50.058;8.688;2023-04-07T04:37:58;12.43;;;9.30;;
3747;SDS011;1889;50.058;8.688;2023-04-07T04:40:28;11.38;;;9.78;;
3747;SDS011;1889;50.058;8.688;2023-04-07T04:42:57;10.82;;;8.83;;
3747;SDS011;1889;50.058;8.688;2023-04-07T04:45:26;11.15;;;9.13;;
3747;SDS011;1889;50.058;8.688;2023-04-07T04:47:56;10.40;;;9.25;;
3747;SDS011;1889;50.058;8.688;2023-04-07T04:50:25;10.40;;;8.78;;
3747;SDS011;1889;50.058;8.688;2023-04-07T04:52:54;10.20;;;8.08;;
3747;SDS011;1889;50.058;8.688;2023-04-07T04:55:24;10.98;;;8.53;;
3747;SDS011;1889;50.058;8.688;2023-04-07T04:57:53;10.72;;;8.83;;
3747;SDS011;1889;50.058;8.688;2023-04-07T05:00:22;12.10;;;9.60;;
3747;SDS011;1889;50.058;8.688;2023-04-07T05:02:52;9.83;;;8.68;;
3747;SDS011;1889;50.058;8.688;2023-04-07T05:05:22;11.78;;;9.08;;
3747;SDS011;1889;50.058;8.688;2023-04-07T05:07:51;10.90;;;8.98;;
3747;SDS011;1889;50.058;8.688;2023-04-07T05:10:21;10.75;;;9.05;;
3747;SDS011;1889;50.058;8.688;2023-04-07T05:12:50;11.95;;;9.13;;
3747;SDS011;1889;50.058;8.688;2023-04-07T05:15:19;10.53;;;8.60;;
3747;SDS011;1889;50.058;8.688;2023-04-07T05:17:49;9.75;;;8.75;;
3747;SDS011;1889;50.058;8.688;2023-04-07T05:20:18;10.23;;;8.80;;
3747;SDS011;1889;50.058;8.688;2023-04-07T05:22:48;11.60;;;8.80;;
3747;SDS011;1889;50.058;8.688;2023-04-07T05:25:17;12.30;;;9.13;;
3747;SDS011;1889;50.058;8.688;2023-04-07T05:27:46;10.32;;;8.35;;
3747;SDS011;1889;50.058;8.688;2023-04-07T05:30:16;9.30;;;8.40;;
3747;SDS011;1889;50.058;8.688;2023-04-07T05:32:45;10.53;;;8.75;;
3747;SDS011;1889;50.058;8.688;2023-04-07T05:35:14;11.00;;;8.98;;
3747;SDS011;1889;50.058;8.688;2023-04-07T05:37:44;10.78;;;8.25;;
3747;SDS011;1889;50.058;8.688;2023-04-07T05:40:13;10.80;;;8.75;;
3747;SDS011;1889;50.058;8.688;2023-04-07T05:42:42;10.48;;;8.63;;
3747;SDS011;1889;50.058;8.688;2023-04-07T05:45:12;10.95;;;9.10;;
3747;SDS011;1889;50.058;8.688;2023-04-07T05:47:42;12.03;;;9.08;;
3747;SDS011;1889;50.058;8.688;2023-04-07T05:50:13;11.55;;;9.00;;
3747;SDS011;1889;50.058;8.688;2023-04-07T05:52:42;11.12;;;9.13;;
3747;SDS011;1889;50.058;8.688;2023-04-07T05:55:12;11.75;;;8.78;;
3747;SDS011;1889;50.058;8.688;2023-04-07T05:57:41;10.40;;;8.73;;
3747;SDS011;1889;50.058;8.688;2023-04-07T06:00:11;10.85;;;9.05;;
3747;SDS011;1889;50.058;8.688;2023-04-07T06:02:41;11.65;;;9.28;;
3747;SDS011;1889;50.058;8.688;2023-04-07T06:05:10;10.13;;;8.23;;
3747;SDS011;1889;50.058;8.688;2023-04-07T06:07:39;11.12;;;8.85;;
3747;SDS011;1889;50.058;8.688;2023-04-07T06:10:09;12.88;;;9.18;;
3747;SDS011;1889;50.058;8.688;2023-04-07T06:12:38;10.03;;;8.70;;
3747;SDS011;1889;50.058;8.688;2023-04-07T06:15:07;12.28;;;9.38;;
3747;SDS011;1889;50.058;8.688;2023-04-07T06:17:37;10.60;;;8.85;;
3747;SDS011;1889;50.058;8.688;2023-04-07T06:20:06;10.95;;;8.78;;
3747;SDS011;1889;50.058;8.688;2023-04-07T06:22:36;13.28;;;9.73;;
3747;SDS011;1889;50.058;8.688;2023-04-07T06:25:06;10.28;;;9.00;;
3747;SDS011;1889;50.058;8.688;2023-04-07T06:27:35;10.03;;;8.35;;
3747;SDS011;1889;50.058;8.688;2023-04-07T06:30:05;10.32;;;8.38;;
3747;SDS011;1889;50.058;8.688;2023-04-07T06:32:35;11.75;;;8.80;;
3747;SDS011;1889;50.058;8.688;2023-04-07T06:35:04;12.73;;;9.73;;
3747;SDS011;1889;50.058;8.688;2023-04-07T06:37:34;11.97;;;8.93;;
3747;SDS011;1889;50.058;8.688;2023-04-07T06:40:04;12.93;;;9.65;;
3747;SDS011;1889;50.058;8.688;2023-04-07T06:42:34;10.55;;;8.88;;
3747;SDS011;1889;50.058;8.688;2023-04-07T06:45:03;11.08;;;8.93;;
3747;SDS011;1889;50.058;8.688;2023-04-07T06:47:33;12.73;;;10.08;;
3747;SDS011;1889;50.058;8.688;2023-04-07T06:50:02;12.60;;;9.13;;
3747;SDS011;1889;50.058;8.688;2023-04-07T06:52:32;11.73;;;9.50;;
3747;SDS011;1889;50.058;8.688;2023-04-07T06:55:01;12.75;;;10.18;;
3747;SDS011;1889;50.058;8.688;2023-04-07T06:57:31;12.95;;;9.30;;
3747;SDS011;1889;50.058;8.688;2023-04-07T07:00:00;12.73;;;9.63;;
3747;SDS011;1889;50.058;8.688;2023-04-07T07:02:30;11.80;;;9.40;;
3747;SDS011;1889;50.058;8.688;2023-04-07T07:04:59;12.68;;;9.50;;
3747;SDS011;1889;50.058;8.688;2023-04-07T07:07:31;10.95;;;9.40;;
3747;SDS011;1889;50.058;8.688;2023-04-07T07:10:00;10.90;;;8.98;;
3747;SDS011;1889;50.058;8.688;2023-04-07T07:12:29;11.18;;;9.35;;
3747;SDS011;1889;50.058;8.688;2023-04-07T07:14:59;15.03;;;9.85;;
3747;SDS011;1889;50.058;8.688;2023-04-07T07:17:29;12.23;;;9.35;;
3747;SDS011;1889;50.058;8.688;2023-04-07T07:19:58;12.40;;;9.68;;
3747;SDS011;1889;50.058;8.688;2023-04-07T07:22:28;11.65;;;9.38;;
3747;SDS011;1889;50.058;8.688;2023-04-07T07:24:57;13.05;;;9.60;;
3747;SDS011;1889;50.058;8.688;2023-04-07T07:27:27;11.40;;;9.25;;
3747;SDS011;1889;50.058;8.688;2023-04-07T07:29:56;11.88;;;10.13;;
3747;SDS011;1889;50.058;8.688;2023-04-07T07:32:25;11.50;;;9.88;;
3747;SDS011;1889;50.058;8.688;2023-04-07T07:34:55;12.07;;;9.93;;
3747;SDS011;1889;50.058;8.688;2023-04-07T07:37:24;12.93;;;10.08;;
3747;SDS011;1889;50.058;8.688;2023-04-07T07:39:54;11.78;;;9.93;;
3747;SDS011;1889;50.058;8.688;2023-04-07T07:42:23;13.55;;;10.20;;
3747;SDS011;1889;50.058;8.688;2023-04-07T07:44:53;13.72;;;9.70;;
3747;SDS011;1889;50.058;8.688;2023-04-07T07:47:22;12.70;;;10.88;;
3747;SDS011;1889;50.058;8.688;2023-04-07T07:49:52;13.22;;;10.58;;
3747;SDS011;1889;50.058;8.688;2023-04-07T07:52:22;13.98;;;10.50;;
3747;SDS011;1889;50.058;8.688;2023-04-07T07:54:52;14.05;;;10.53;;
3747;SDS011;1889;50.058;8.688;2023-04-07T07:57:21;16.10;;;13.43;;
3747;SDS011;1889;50.058;8.688;2023-04-07T07:59:50;14.38;;;10.72;;
3747;SDS011;1889;50.058;8.688;2023-04-07T08:02:20;11.57;;;10.03;;
3747;SDS011;1889;50.058;8.688;2023-04-07T08:04:49;12.07;;;9.75;;
3747;SDS011;1889;50.058;8.688;2023-04-07T08:07:18;12.78;;;9.85;;
3747;SDS011;1889;50.058;8.688;2023-04-07T08:09:48;13.20;;;10.20;;
3747;SDS011;1889;50.058;8.688;2023-04-07T08:12:17;12.35;;;9.63;;
3747;SDS011;1889;50.058;8.688;2023-04-07T08:14:47;10.23;;;9.03;;
3747;SDS011;1889;50.058;8.688;2023-04-07T08:17:16;12.23;;;10.25;;
3747;SDS011;1889;50.058;8.688;2023-04-07T08:19:46;11.45;;;9.80;;
3747;SDS011;1889;50.058;8.688;2023-04-07T08:22:15;11.20;;;9.33;;
3747;SDS011;1889;50.058;8.688;2023-04-07T08:24:46;13.78;;;9.98;;
3747;SDS011;1889;50.058;8.688;2023-04-07T08:27:15;14.68;;;10.30;;
3747;SDS011;1889;50.058;8.688;2023-04-07T08:29:45;12.47;;;9.25;;
3747;SDS011;1889;50.058;8.688;2023-04-07T08:32:16;13.48;;;10.40;;
3747;SDS011;1889;50.058;8.688;2023-04-07T08:34:45;12.33;;;9.90;;
3747;SDS011;1889;50.058;8.688;2023-04-07T08:37:14;12.35;;;10.35;;
3747;SDS011;1889;50.058;8.688;2023-04-07T08:39:43;12.95;;;10.38;;
3747;SDS011;1889;50.058;8.688;2023-04-07T08:42:13;12.33;;;10.38;;
3747;SDS011;1889;50.058;8.688;2023-04-07T08:44:44;11.43;;;9.58;;
3747;SDS011;1889;50.058;8.688;2023-04-07T08:47:15;14.53;;;9.85;;
3747;SDS011;1889;50.058;8.688;2023-04-07T08:49:45;13.83;;;10.80;;
3747;SDS011;1889;50.058;8.688;2023-04-07T08:52:21;12.82;;;9.95;;
3747;SDS011;1889;50.058;8.688;2023-04-07T08:54:50;13.88;;;10.85;;
3747;SDS011;1889;50.058;8.688;2023-04-07T08:57:20;12.07;;;10.80;;
3747;SDS011;1889;50.058;8.688;2023-04-07T08:59:49;11.38;;;10.18;;
3747;SDS011;1889;50.058;8.688;2023-04-07T09:02:19;13.03;;;10.48;;
3747;SDS011;1889;50.058;8.688;2023-04-07T09:04:49;11.90;;;10.00;;
3747;SDS011;1889;50.058;8.688;2023-04-07T09:07:19;11.35;;;9.25;;
3747;SDS011;1889;50.058;8.688;2023-04-07T09:09:48;13.03;;;9.80;;
3747;SDS011;1889;50.058;8.688;2023-04-07T09:12:17;12.37;;;10.70;;
3747;SDS011;1889;50.058;8.688;2023-04-07T09:14:47;12.15;;;9.88;;
3747;SDS011;1889;50.058;8.688;2023-04-07T09:17:16;11.40;;;9.43;;
3747;SDS011;1889;50.058;8.688;2023-04-07T09:19:46;11.90;;;9.73;;
3747;SDS011;1889;50.058;8.688;2023-04-07T09:22:20;13.30;;;10.13;;
3747;SDS011;1889;50.058;8.688;2023-04-07T09:25:19;13.18;;;9.80;;
3747;SDS011;1889;50.058;8.688;2023-04-07T09:28:00;12.40;;;10.53;;
3747;SDS011;1889;50.058;8.688;2023-04-07T09:30:32;12.45;;;10.45;;
3747;SDS011;1889;50.058;8.688;2023-04-07T09:33:01;12.23;;;10.00;;
3747;SDS011;1889;50.058;8.688;2023-04-07T09:35:31;13.15;;;10.90;;
3747;SDS011;1889;50.058;8.688;2023-04-07T09:38:06;10.38;;;9.10;;
3747;SDS011;1889;50.058;8.688;2023-04-07T09:40:37;13.80;;;10.85;;
3747;SDS011;1889;50.058;8.688;2023-04-07T09:43:06;11.00;;;9.83;;
3747;SDS011;1889;50.058;8.688;2023-04-07T09:45:38;11.55;;;10.23;;
3747;SDS011;1889;50.058;8.688;2023-04-07T09:48:18;11.57;;;9.13;;
3747;SDS011;1889;50.058;8.688;2023-04-07T09:50:48;12.40;;;9.10;;
3747;SDS011;1889;50.058;8.688;2023-04-07T09:53:18;10.23;;;9.10;;
3747;SDS011;1889;50.058;8.688;2023-04-07T09:55:49;11.50;;;9.75;;
3747;SDS011;1889;50.058;8.688;2023-04-07T09:58:20;11.10;;;9.68;;
3747;SDS011;1889;50.058;8.688;2023-04-07T10:00:49;10.85;;;9.10;;
3747;SDS011;1889;50.058;8.688;2023-04-07T10:03:19;13.48;;;9.93;;
3747;SDS011;1889;50.058;8.688;2023-04-07T10:05:49;12.20;;;10.55;;
3747;SDS011;1889;50.058;8.688;2023-04-07T10:08:19;10.55;;;9.45;;
3747;SDS011;1889;50.058;8.688;2023-04-07T10:10:48;10.98;;;9.75;;
3747;SDS011;1889;50.058;8.688;2023-04-07T10:13:18;13.72;;;11.00;;
3747;SDS011;1889;50.058;8.688;2023-04-07T10:15:49;13.18;;;10.43;;
3747;SDS011;1889;50.058;8.688;2023-04-07T10:18:19;11.57;;;10.38;;
3747;SDS011;1889;50.058;8.688;2023-04-07T10:20:50;12.58;;;11.00;;
3747;SDS011;1889;50.058;8.688;2023-04-07T10:23:24;13.35;;;10.15;;
3747;SDS011;1889;50.058;8.688;2023-04-07T10:26:10;10.85;;;9.75;;
3747;SDS011;1889;50.058;8.688;2023-04-07T10:28:42;12.93;;;10.25;;
3747;SDS011;1889;50.058;8.688;2023-04-07T10:31:13;12.93;;;10.05;;
3747;SDS011;1889;50.058;8.688;2023-04-07T10:33:45;12.18;;;10.45;;
3747;SDS011;1889;50.058;8.688;2023-04-07T10:36:16;10.80;;;9.73;;
3747;SDS011;1889;50.058;8.688;2023-04-07T10:41:38;13.75;;;11.55;;
3747;SDS011;1889;50.058;8.688;2023-04-07T10:44:09;11.88;;;10.15;;
3747;SDS011;1889;50.058;8.688;2023-04-07T10:47:01;14.23;;;11.45;;
3747;SDS011;1889;50.058;8.688;2023-04-07T10:49:32;18.95;;;13.62;;
3747;SDS011;1889;50.058;8.688;2023-04-07T10:54:44;11.53;;;10.32;;
3747;SDS011;1889;50.058;8.688;2023-04-07T10:57:13;12.10;;;10.75;;
3747;SDS011;1889;50.058;8.688;2023-04-07T11:00:28;10.08;;;9.08;;
3747;SDS011;1889;50.058;8.688;2023-04-07T11:02:38;9.20;;;8.30;;
3747;SDS011;1889;50.058;8.688;2023-04-07T11:05:07;9.28;;;8.30;;
3747;SDS011;1889;50.058;8.688;2023-04-07T11:07:47;8.58;;;7.65;;
3747;SDS011;1889;50.058;8.688;2023-04-07T11:10:17;8.85;;;7.67;;
3747;SDS011;1889;50.058;8.688;2023-04-07T11:12:58;9.23;;;8.25;;
3747;SDS011;1889;50.058;8.688;2023-04-07T11:15:32;8.00;;;7.20;;
3747;SDS011;1889;50.058;8.688;2023-04-07T11:18:05;8.80;;;7.87;;
3747;SDS011;1889;50.058;8.688;2023-04-07T11:20:50;9.48;;;8.45;;
3747;SDS011;1889;50.058;8.688;2023-04-07T11:23:20;8.80;;;7.40;;
3747;SDS011;1889;50.058;8.688;2023-04-07T11:25:52;11.28;;;9.33;;
3747;SDS011;1889;50.058;8.688;2023-04-07T11:28:23;11.33;;;10.18;;
3747;SDS011;1889;50.058;8.688;2023-04-07T11:30:53;12.63;;;9.93;;
3747;SDS011;1889;50.058;8.688;2023-04-07T11:33:24;11.80;;;9.40;;
3747;SDS011;1889;50.058;8.688;2023-04-07T11:35:58;10.80;;;9.70;;
3747;SDS011;1889;50.058;8.688;2023-04-07T11:38:30;11.90;;;9.85;;
3747;SDS011;1889;50.058;8.688;2023-04-07T11:41:10;12.40;;;9.75;;
3747;SDS011;1889;50.058;8.688;2023-04-07T11:43:41;11.97;;;9.90;;
3747;SDS011;1889;50.058;8.688;2023-04-07T11:46:12;11.15;;;10.00;;
3747;SDS011;1889;50.058;8.688;2023-04-07T11:48:43;11.78;;;9.38;;
3747;SDS011;1889;50.058;8.688;2023-04-07T11:51:21;11.15;;;8.63;;
3747;SDS011;1889;50.058;8.688;2023-04-07T11:53:55;9.95;;;8.95;;
3747;SDS011;1889;50.058;8.688;2023-04-07T11:56:25;10.68;;;8.95;;
3747;SDS011;1889;50.058;8.688;2023-04-07T11:58:56;11.38;;;8.43;;
3747;SDS011;1889;50.058;8.688;2023-04-07T12:01:37;10.23;;;8.93;;
3747;SDS011;1889;50.058;8.688;2023-04-07T12:04:11;11.80;;;8.68;;
3747;SDS011;1889;50.058;8.688;2023-04-07T12:06:44;10.85;;;8.40;;
3747;SDS011;1889;50.058;8.688;2023-04-07T12:09:24;9.65;;;8.05;;
3747;SDS011;1889;50.058;8.688;2023-04-07T12:12:04;9.45;;;8.45;;
3747;SDS011;1889;50.058;8.688;2023-04-07T12:14:34;9.50;;;8.00;;
3747;SDS011;1889;50.058;8.688;2023-04-07T12:17:04;9.80;;;8.28;;
3747;SDS011;1889;50.058;8.688;2023-04-07T12:19:35;9.63;;;8.63;;
3747;SDS011;1889;50.058;8.688;2023-04-07T12:22:05;10.20;;;8.18;;
3747;SDS011;1889;50.058;8.688;2023-04-07T12:24:35;9.63;;;8.15;;
3747;SDS011;1889;50.058;8.688;2023-04-07T12:27:04;9.25;;;8.25;;
3747;SDS011;1889;50.058;8.688;2023-04-07T12:29:34;9.65;;;8.05;;
3747;SDS011;1889;50.058;8.688;2023-04-07T12:32:03;8.53;;;7.45;;
3747;SDS011;1889;50.058;8.688;2023-04-07T12:34:33;9.95;;;7.83;;
3747;SDS011;1889;50.058;8.688;2023-04-07T12:37:03;7.85;;;7.05;;
3747;SDS011;1889;50.058;8.688;2023-04-07T12:39:33;8.03;;;7.22;;
3747;SDS011;1889;50.058;8.688;2023-04-07T12:42:02;7.55;;;6.85;;
3747;SDS011;1889;50.058;8.688;2023-04-07T12:44:32;8.18;;;6.47;;
3747;SDS011;1889;50.058;8.688;2023-04-07T12:47:02;8.90;;;6.97;;
3747;SDS011;1889;50.058;8.688;2023-04-07T12:49:31;8.80;;;6.87;;
3747;SDS011;1889;50.058;8.688;2023-04-07T12:52:00;8.40;;;7.50;;
3747;SDS011;1889;50.058;8.688;2023-04-07T12:54:30;8.58;;;7.28;;
3747;SDS011;1889;50.058;8.688;2023-04-07T12:56:59;7.92;;;7.12;;
3747;SDS011;1889;50.058;8.688;2023-04-07T12:59:29;7.75;;;6.95;;
3747;SDS011;1889;50.058;8.688;2023-04-07T13:01:58;8.03;;;7.20;;
3747;SDS011;1889;50.058;8.688;2023-04-07T13:04:27;10.00;;;7.80;;
3747;SDS011;1889;50.058;8.688;2023-04-07T13:06:57;8.50;;;7.55;;
3747;SDS011;1889;50.058;8.688;2023-04-07T13:09:28;8.50;;;7.60;;
3747;SDS011;1889;50.058;8.688;2023-04-07T13:11:57;8.50;;;7.60;;
3747;SDS011;1889;50.058;8.688;2023-04-07T13:14:27;8.38;;;7.45;;
3747;SDS011;1889;50.058;8.688;2023-04-07T13:16:56;8.65;;;7.70;;
3747;SDS011;1889;50.058;8.688;2023-04-07T13:19:25;9.03;;;7.50;;
3747;SDS011;1889;50.058;8.688;2023-04-07T13:21:55;8.93;;;7.40;;
3747;SDS011;1889;50.058;8.688;2023-04-07T13:24:24;9.18;;;7.83;;
3747;SDS011;1889;50.058;8.688;2023-04-07T13:26:53;8.13;;;7.33;;
3747;SDS011;1889;50.058;8.688;2023-04-07T13:29:24;7.67;;;6.62;;
3747;SDS011;1889;50.058;8.688;2023-04-07T13:32:03;9.93;;;8.28;;
3747;SDS011;1889;50.058;8.688;2023-04-07T13:34:34;7.00;;;6.30;;
3747;SDS011;1889;50.058;8.688;2023-04-07T13:37:04;8.90;;;7.22;;
3747;SDS011;1889;50.058;8.688;2023-04-07T13:39:34;9.43;;;7.20;;
3747;SDS011;1889;50.058;8.688;2023-04-07T13:42:03;7.72;;;6.92;;
3747;SDS011;1889;50.058;8.688;2023-04-07T13:44:33;8.50;;;7.25;;
3747;SDS011;1889;50.058;8.688;2023-04-07T13:47:03;7.05;;;6.45;;
3747;SDS011;1889;50.058;8.688;2023-04-07T13:49:32;7.78;;;6.78;;
3747;SDS011;1889;50.058;8.688;2023-04-07T13:52:02;6.33;;;5.72;;
3747;SDS011;1889;50.058;8.688;2023-04-07T13:54:32;6.33;;;5.72;;
3747;SDS011;1889;50.058;8.688;2023-04-07T13:57:01;6.67;;;5.85;;
3747;SDS011;1889;50.058;8.688;2023-04-07T13:59:30;6.45;;;5.45;;
3747;SDS011;1889;50.058;8.688;2023-04-07T14:02:00;6.00;;;5.50;;
3747;SDS011;1889;50.058;8.688;2023-04-07T14:04:29;5.87;;;5.08;;
3747;SDS011;1889;50.058;8.688;2023-04-07T14:06:59;5.05;;;4.65;;
3747;SDS011;1889;50.058;8.688;2023-04-07T14:09:28;5.08;;;4.55;;
3747;SDS011;1889;50.058;8.688;2023-04-07T14:11:57;5.35;;;4.85;;
3747;SDS011;1889;50.058;8.688;2023-04-07T14:14:26;5.95;;;5.35;;
3747;SDS011;1889;50.058;8.688;2023-04-07T14:16:56;5.50;;;5.00;;
3747;SDS011;1889;50.058;8.688;2023-04-07T14:19:25;5.03;;;4.53;;
3747;SDS011;1889;50.058;8.688;2023-04-07T14:21:54;4.95;;;4.37;;
3747;SDS011;1889;50.058;8.688;2023-04-07T14:24:24;4.33;;;3.92;;
3747;SDS011;1889;50.058;8.688;2023-04-07T14:26:53;4.83;;;4.42;;
3747;SDS011;1889;50.058;8.688;2023-04-07T14:29:22;4.15;;;3.77;;
3747;SDS011;1889;50.058;8.688;2023-04-07T14:31:52;4.42;;;4.00;;
3747;SDS011;1889;50.058;8.688;2023-04-07T14:34:22;4.78;;;4.25;;
3747;SDS011;1889;50.058;8.688;2023-04-07T14:36:56;3.83;;;3.52;;
3747;SDS011;1889;50.058;8.688;2023-04-07T14:39:25;3.83;;;3.40;;
3747;SDS011;1889;50.058;8.688;2023-04-07T14:41:54;3.70;;;3.40;;
3747;SDS011;1889;50.058;8.688;2023-04-07T14:44:23;3.20;;;3.00;;
3747;SDS011;1889;50.058;8.688;2023-04-07T14:46:54;3.00;;;2.80;;
3747;SDS011;1889;50.058;8.688;2023-04-07T14:49:24;3.17;;;2.87;;
3747;SDS011;1889;50.058;8.688;2023-04-07T14:51:54;5.47;;;3.37;;
3747;SDS011;1889;50.058;8.688;2023-04-07T14:54:25;3.40;;;3.00;;
3747;SDS011;1889;50.058;8.688;2023-04-07T14:56:54;5.50;;;3.40;;
3747;SDS011;1889;50.058;8.688;2023-04-07T14:59:24;3.83;;;3.52;;
3747;SDS011;1889;50.058;8.688;2023-04-07T15:01:53;3.70;;;3.15;;
3747;SDS011;1889;50.058;8.688;2023-04-07T15:04:22;3.40;;;3.10;;
3747;SDS011;1889;50.058;8.688;2023-04-07T15:06:51;3.25;;;2.98;;
3747;SDS011;1889;50.058;8.688;2023-04-07T15:09:21;2.58;;;2.37;;
3747;SDS011;1889;50.058;8.688;2023-04-07T15:11:50;2.62;;;2.42;;
3747;SDS011;1889;50.058;8.688;2023-04-07T15:14:19;3.02;;;2.80;;
3747;SDS011;1889;50.058;8.688;2023-04-07T15:16:49;2.85;;;2.65;;
3747;SDS011;1889;50.058;8.688;2023-04-07T15:19:18;3.20;;;2.90;;
3747;SDS011;1889;50.058;8.688;2023-04-07T15:21:47;2.45;;;2.25;;
3747;SDS011;1889;50.058;8.688;2023-04-07T15:24:17;2.80;;;2.60;;
3747;SDS011;1889;50.058;8.688;2023-04-07T15:26:48;2.58;;;2.30;;
3747;SDS011;1889;50.058;8.688;2023-04-07T15:29:17;2.37;;;2.10;;
3747;SDS011;1889;50.058;8.688;2023-04-07T15:31:47;2.20;;;2.10;;
3747;SDS011;1889;50.058;8.688;2023-04-07T15:34:16;1.80;;;1.70;;
3747;SDS011;1889;50.058;8.688;2023-04-07T15:36:45;2.27;;;1.85;;